Strona główna
METAR-TAF:

METAR-TAF

Lotnisko :

Taubaté, São Paulo, Brazylia

Szerokość geograficzna: 23-02-26S, Długość geograficzna: 45-31-00W, wysokość: 577 m

Aktualna obserwacja pogody

Raport powstał 1 godzina i 17 minut temu, godzina 21:00 UTC
Wiatr 4 kt od południowo-południowy zachód, zmienny między południowo-południowy wschód i południowy zachód
Temperatura 26°C
Wilgotność 74%
Ciśnienie 1011 hPa
Widzialność 10 km lub więcej
Rozproszone chmury na wysokości 4700 ft
Mało chmury na wysokości 4800 ft, Cumulusy wypiętrznone.

METAR: SBTA 202100Z 20004KT 160V230 9999 SCT047 FEW048TCU 26/21 Q1011

czas: 19:17 (22:17 UTC)


TAF: brakujący

Obserwacja i prognoza pogody dla ponad 4000 lotnisk (raport METAR i TAF).

Dostępne stacje oznaczono żółtymi i czerwonymi punktami na mapie.

Najedź kursorem aby zobaczyć nazwę stacji.

Kliknij aby zobaczyć obserwacje i prognozy pogody.

Aby zmienić mapę: kliknij na zielony przycisk z czarnym krzyżykiem, aby powiększyć; na zielony przycisk z myślnikiem, aby pomniejszyć; na zielone strzałki, aby przejść do map sąsiednich.


METAR-TAF: